EDDBUMMS

Guest
Details From EDDB - Berlin Schoenefeld
To UMMS - Minsk Velikiydvor
Flight Number -
Tags decoded
Created
Modified
Stats Distance 530 nm / 981 km
Max Altitude 0 ft / 0 m
Waypoints 2
Social Downloads 0
Likes 0
Share VATSIM

Download

Looking for another format? Having issues loading an existing format? Contact us
Advertisement - Login to hide

Notes

Requested: EDDB UMMS

Route

EDDB UMMS

ID Type Via Altitude Latitude Longitude Leg Dist Tot Dist Heading (true) Name
O EDDB APT - 0 ft / 0 m 52.37854˚ 13.52063˚ - 0 nm - Berlin Schoenefeld
O UMMS APT - 0 ft / 0 m 53.88255˚ 28.03079˚ 529 nm 529 nm 74° / 86° Minsk Velikiydvor

Altitude Profile

Advertisement - Login to hide

Weather


0- 5 10 15 20 25 30 35+ Temperature / ° C

Clouds and Precipitation
Forecast for 2017-12-17 00:00 UTC. Updated 2 hours ago

Ground ~20,000 ft ~40,000 ft Winds

EDDB

Details ICAO EDDB (BER)
Name Berlin Schoenefeld
Region Germany - Civil
Timezone Europe/Berlin (UTC+1.0)
Stats Elevation 157 ft / 48 m (AMSL)
Location 52.378541° 13.520629°
Runways 2
Magnetic Variation 3.808° E

METAR

EDDB 170020Z 25008KT 9999 BKN016 02/01 Q1011 TEMPO BKN012

Decode

TAF

TAF EDDB 162300Z 1700/1724 27008KT 9999 SCT010 BKN025 TEMPO 1700/1712 3500 -SHSN BKN008TCU

Decode

Departure Runways

ID Width Length Bearing (true) Bearing (mag) Surface Threshold Offset Overrun Length
07 148 ft / 45 m 9,817 ft / 2,992 m 68.75° 64.94° Asphalt 0 ft / 0 m 984 ft / 300 m
07L 148 ft / 45 m 8,867 ft / 2,703 m 68.77° 64.96° Concrete 0 ft / 0 m 525 ft / 160 m
25 148 ft / 45 m 9,817 ft / 2,992 m 248.78° 244.97° Asphalt 0 ft / 0 m 984 ft / 300 m
25R 148 ft / 45 m 8,867 ft / 2,703 m 248.80° 244.99° Concrete 0 ft / 0 m 984 ft / 300 m

UMMS

Details ICAO UMMS (MSQ)
Name Minsk Velikiydvor
Region Belarus and Russia (Kaliningrad Oblast)
Timezone Europe/Minsk (UTC+3.0)
Stats Elevation 669 ft / 204 m (AMSL)
Location 53.882550° 28.030786°
Runways 1
Magnetic Variation 8.010° E

METAR

UMMS 170040Z 29006G10MPS 7000 OVC004 00/M01 Q1005 R31/690541 NOSIG

Decode

TAF

TAF UMMS 162309Z 1700/1724 29006MPS 3000 -SNRA BR OVC003 TX01/1712Z TNM01/1702Z TEMPO 1700/1709 0500 -FZDZ FZFG BKN002 FM170900 27005G10MPS 6000 BKN007 TEMPO 1709/1724 1200 -SHSNRA BR BCFG BKN003 BKN012CB

Decode

Destination Runways

ID Width Length Bearing (true) Bearing (mag) Surface Threshold Offset Overrun Length
13 197 ft / 60 m 11,938 ft / 3,639 m 138.85° 130.84° Concrete 0 ft / 0 m 0 ft / 0 m
31 197 ft / 60 m 11,938 ft / 3,639 m 318.88° 310.87° Concrete 0 ft / 0 m 0 ft / 0 m

Approach Navaids

Runway Type Ident Frequency Range Bearing (true) Bearing (mag) Slope Elevation
13 Localiser IVX 108.90 MHz 18 nm / 33 km 138.79° 130.78° - 669 ft / 204 m (AMSL)
13 Glidescope IVX 108.90 MHz 10 nm / 19 km 138.79° 130.78° 2.70° 669 ft / 204 m (AMSL)
31 Localiser IGH 109.70 MHz 18 nm / 33 km 318.83° 310.82° - 669 ft / 204 m (AMSL)
31 Glidescope IGH 109.70 MHz 10 nm / 19 km 318.83° 310.82° 2.70° 669 ft / 204 m (AMSL)

Popular Alternatives